sensor_id;sensor_type;location;lat;lon;timestamp;P1;durP1;ratioP1;P2;durP2;ratioP2
6665;SDS011;3369;49.906;8.598;2023-04-23T00:00:21;5.00;;;4.60;;
6665;SDS011;3369;49.906;8.598;2023-04-23T00:02:48;4.87;;;3.83;;
6665;SDS011;3369;49.906;8.598;2023-04-23T00:05:17;5.43;;;4.40;;
6665;SDS011;3369;49.906;8.598;2023-04-23T00:07:44;4.80;;;4.17;;
6665;SDS011;3369;49.906;8.598;2023-04-23T00:10:10;5.40;;;4.30;;
6665;SDS011;3369;49.906;8.598;2023-04-23T00:12:36;5.07;;;4.47;;
6665;SDS011;3369;49.906;8.598;2023-04-23T00:15:03;5.87;;;3.90;;
6665;SDS011;3369;49.906;8.598;2023-04-23T00:17:29;4.67;;;4.27;;
6665;SDS011;3369;49.906;8.598;2023-04-23T00:19:55;4.40;;;4.00;;
6665;SDS011;3369;49.906;8.598;2023-04-23T00:22:20;6.57;;;4.03;;
6665;SDS011;3369;49.906;8.598;2023-04-23T00:24:46;6.17;;;4.00;;
6665;SDS011;3369;49.906;8.598;2023-04-23T00:27:12;4.50;;;4.10;;
6665;SDS011;3369;49.906;8.598;2023-04-23T00:29:38;4.50;;;4.10;;
6665;SDS011;3369;49.906;8.598;2023-04-23T00:32:04;4.93;;;4.30;;
6665;SDS011;3369;49.906;8.598;2023-04-23T00:34:30;4.80;;;4.30;;
6665;SDS011;3369;49.906;8.598;2023-04-23T00:36:56;7.73;;;4.97;;
6665;SDS011;3369;49.906;8.598;2023-04-23T00:39:21;5.87;;;4.53;;
6665;SDS011;3369;49.906;8.598;2023-04-23T00:41:47;5.10;;;3.93;;
6665;SDS011;3369;49.906;8.598;2023-04-23T00:44:13;5.63;;;4.60;;
6665;SDS011;3369;49.906;8.598;2023-04-23T00:46:39;5.10;;;4.70;;
6665;SDS011;3369;49.906;8.598;2023-04-23T00:49:05;5.57;;;4.97;;
6665;SDS011;3369;49.906;8.598;2023-04-23T00:51:32;7.10;;;5.10;;
6665;SDS011;3369;49.906;8.598;2023-04-23T00:53:58;4.90;;;4.50;;
6665;SDS011;3369;49.906;8.598;2023-04-23T00:56:24;5.47;;;4.97;;
6665;SDS011;3369;49.906;8.598;2023-04-23T00:58:51;5.27;;;4.80;;
6665;SDS011;3369;49.906;8.598;2023-04-23T01:01:17;5.60;;;5.00;;
6665;SDS011;3369;49.906;8.598;2023-04-23T01:03:45;7.37;;;5.33;;
6665;SDS011;3369;49.906;8.598;2023-04-23T01:06:15;7.67;;;5.63;;
6665;SDS011;3369;49.906;8.598;2023-04-23T01:29:12;7.97;;;6.93;;
6665;SDS011;3369;49.906;8.598;2023-04-23T01:31:38;8.90;;;7.27;;
6665;SDS011;3369;49.906;8.598;2023-04-23T01:34:04;10.43;;;7.37;;
6665;SDS011;3369;49.906;8.598;2023-04-23T01:36:31;11.27;;;7.50;;
6665;SDS011;3369;49.906;8.598;2023-04-23T01:38:58;9.00;;;6.93;;
6665;SDS011;3369;49.906;8.598;2023-04-23T01:41:23;8.73;;;7.57;;
6665;SDS011;3369;49.906;8.598;2023-04-23T01:43:49;8.17;;;6.30;;
6665;SDS011;3369;49.906;8.598;2023-04-23T01:46:15;7.30;;;6.60;;
6665;SDS011;3369;49.906;8.598;2023-04-23T01:48:41;11.27;;;7.40;;
6665;SDS011;3369;49.906;8.598;2023-04-23T01:51:06;9.37;;;7.40;;
6665;SDS011;3369;49.906;8.598;2023-04-23T01:53:33;8.30;;;7.50;;
6665;SDS011;3369;49.906;8.598;2023-04-23T01:55:58;8.47;;;7.60;;
6665;SDS011;3369;49.906;8.598;2023-04-23T01:58:25;8.57;;;7.77;;
6665;SDS011;3369;49.906;8.598;2023-04-23T02:00:50;8.20;;;7.30;;
6665;SDS011;3369;49.906;8.598;2023-04-23T02:03:16;7.63;;;6.50;;
6665;SDS011;3369;49.906;8.598;2023-04-23T02:05:42;8.93;;;7.50;;
6665;SDS011;3369;49.906;8.598;2023-04-23T02:08:08;8.00;;;7.20;;
6665;SDS011;3369;49.906;8.598;2023-04-23T02:10:34;6.87;;;6.13;;
6665;SDS011;3369;49.906;8.598;2023-04-23T02:13:00;7.10;;;6.40;;
6665;SDS011;3369;49.906;8.598;2023-04-23T02:15:26;7.00;;;6.40;;
6665;SDS011;3369;49.906;8.598;2023-04-23T02:17:52;7.30;;;6.63;;
6665;SDS011;3369;49.906;8.598;2023-04-23T02:20:18;7.47;;;6.80;;
6665;SDS011;3369;49.906;8.598;2023-04-23T02:22:45;6.93;;;6.33;;
6665;SDS011;3369;49.906;8.598;2023-04-23T02:25:13;7.83;;;7.03;;
6665;SDS011;3369;49.906;8.598;2023-04-23T02:27:40;6.97;;;6.30;;
6665;SDS011;3369;49.906;8.598;2023-04-23T02:30:06;7.07;;;6.47;;
6665;SDS011;3369;49.906;8.598;2023-04-23T02:32:33;6.43;;;5.83;;
6665;SDS011;3369;49.906;8.598;2023-04-23T02:35:00;6.80;;;5.70;;
6665;SDS011;3369;49.906;8.598;2023-04-23T02:37:26;8.60;;;6.53;;
6665;SDS011;3369;49.906;8.598;2023-04-23T02:39:52;6.77;;;6.07;;
6665;SDS011;3369;49.906;8.598;2023-04-23T02:42:17;7.23;;;6.13;;
6665;SDS011;3369;49.906;8.598;2023-04-23T02:44:43;6.57;;;5.97;;
6665;SDS011;3369;49.906;8.598;2023-04-23T02:47:09;6.53;;;5.93;;
6665;SDS011;3369;49.906;8.598;2023-04-23T02:49:34;6.43;;;5.83;;
6665;SDS011;3369;49.906;8.598;2023-04-23T02:52:00;6.43;;;5.77;;
6665;SDS011;3369;49.906;8.598;2023-04-23T02:54:26;7.67;;;5.77;;
6665;SDS011;3369;49.906;8.598;2023-04-23T02:56:52;6.30;;;5.67;;
6665;SDS011;3369;49.906;8.598;2023-04-23T02:59:17;7.13;;;6.43;;
6665;SDS011;3369;49.906;8.598;2023-04-23T03:01:43;8.10;;;6.03;;
6665;SDS011;3369;49.906;8.598;2023-04-23T03:04:09;6.20;;;5.43;;
6665;SDS011;3369;49.906;8.598;2023-04-23T03:06:34;6.27;;;5.70;;
6665;SDS011;3369;49.906;8.598;2023-04-23T03:09:00;6.03;;;5.47;;
6665;SDS011;3369;49.906;8.598;2023-04-23T03:11:26;6.87;;;6.27;;
6665;SDS011;3369;49.906;8.598;2023-04-23T03:13:52;7.50;;;5.73;;
6665;SDS011;3369;49.906;8.598;2023-04-23T03:16:17;7.07;;;5.97;;
6665;SDS011;3369;49.906;8.598;2023-04-23T03:18:44;6.17;;;5.67;;
6665;SDS011;3369;49.906;8.598;2023-04-23T03:21:09;7.03;;;5.67;;
6665;SDS011;3369;49.906;8.598;2023-04-23T03:23:35;6.53;;;5.93;;
6665;SDS011;3369;49.906;8.598;2023-04-23T03:26:00;7.53;;;6.40;;
6665;SDS011;3369;49.906;8.598;2023-04-23T03:28:26;6.37;;;5.77;;
6665;SDS011;3369;49.906;8.598;2023-04-23T03:30:52;6.67;;;5.93;;
6665;SDS011;3369;49.906;8.598;2023-04-23T03:33:18;8.27;;;6.33;;
6665;SDS011;3369;49.906;8.598;2023-04-23T03:35:43;7.90;;;6.87;;
6665;SDS011;3369;49.906;8.598;2023-04-23T03:38:09;7.27;;;6.57;;
6665;SDS011;3369;49.906;8.598;2023-04-23T03:40:35;7.33;;;6.63;;
6665;SDS011;3369;49.906;8.598;2023-04-23T03:43:00;7.37;;;6.70;;
6665;SDS011;3369;49.906;8.598;2023-04-23T03:45:26;7.70;;;7.00;;
6665;SDS011;3369;49.906;8.598;2023-04-23T03:47:52;7.73;;;6.57;;
6665;SDS011;3369;49.906;8.598;2023-04-23T03:50:17;7.07;;;6.43;;
6665;SDS011;3369;49.906;8.598;2023-04-23T03:52:43;7.27;;;6.67;;
6665;SDS011;3369;49.906;8.598;2023-04-23T03:55:09;7.80;;;7.00;;
6665;SDS011;3369;49.906;8.598;2023-04-23T03:57:35;8.50;;;6.87;;
6665;SDS011;3369;49.906;8.598;2023-04-23T04:00:00;7.03;;;6.43;;
6665;SDS011;3369;49.906;8.598;2023-04-23T04:02:27;7.27;;;6.53;;
6665;SDS011;3369;49.906;8.598;2023-04-23T04:04:53;8.57;;;7.77;;
6665;SDS011;3369;49.906;8.598;2023-04-23T04:07:20;9.73;;;7.10;;
6665;SDS011;3369;49.906;8.598;2023-04-23T04:09:46;7.53;;;6.83;;
6665;SDS011;3369;49.906;8.598;2023-04-23T04:12:13;9.03;;;6.70;;
6665;SDS011;3369;49.906;8.598;2023-04-23T04:14:40;7.47;;;6.60;;
6665;SDS011;3369;49.906;8.598;2023-04-23T04:17:06;7.70;;;7.00;;
6665;SDS011;3369;49.906;8.598;2023-04-23T04:19:33;7.57;;;6.70;;
6665;SDS011;3369;49.906;8.598;2023-04-23T04:21:58;7.57;;;6.80;;
6665;SDS011;3369;49.906;8.598;2023-04-23T04:24:26;7.90;;;6.50;;
6665;SDS011;3369;49.906;8.598;2023-04-23T04:26:52;9.90;;;7.13;;
6665;SDS011;3369;49.906;8.598;2023-04-23T04:29:18;7.27;;;6.57;;
6665;SDS011;3369;49.906;8.598;2023-04-23T04:31:45;8.40;;;7.60;;
6665;SDS011;3369;49.906;8.598;2023-04-23T04:34:11;7.33;;;6.63;;
6665;SDS011;3369;49.906;8.598;2023-04-23T04:36:38;8.17;;;6.70;;
6665;SDS011;3369;49.906;8.598;2023-04-23T04:39:05;7.73;;;6.90;;
6665;SDS011;3369;49.906;8.598;2023-04-23T04:41:31;8.03;;;7.23;;
6665;SDS011;3369;49.906;8.598;2023-04-23T04:43:57;10.07;;;7.57;;
6665;SDS011;3369;49.906;8.598;2023-04-23T04:46:23;8.53;;;7.63;;
6665;SDS011;3369;49.906;8.598;2023-04-23T04:48:50;7.13;;;6.43;;
6665;SDS011;3369;49.906;8.598;2023-04-23T04:51:16;7.03;;;6.40;;
6665;SDS011;3369;49.906;8.598;2023-04-23T04:53:41;10.10;;;7.50;;
6665;SDS011;3369;49.906;8.598;2023-04-23T04:56:07;8.33;;;7.33;;
6665;SDS011;3369;49.906;8.598;2023-04-23T04:58:33;8.00;;;7.20;;
6665;SDS011;3369;49.906;8.598;2023-04-23T05:00:59;8.97;;;7.60;;
6665;SDS011;3369;49.906;8.598;2023-04-23T05:03:25;8.83;;;7.33;;
6665;SDS011;3369;49.906;8.598;2023-04-23T05:05:51;8.50;;;7.27;;
6665;SDS011;3369;49.906;8.598;2023-04-23T05:08:20;7.33;;;6.63;;
6665;SDS011;3369;49.906;8.598;2023-04-23T05:10:46;7.73;;;7.03;;
6665;SDS011;3369;49.906;8.598;2023-04-23T05:13:14;9.60;;;6.93;;
6665;SDS011;3369;49.906;8.598;2023-04-23T05:15:40;7.50;;;6.80;;
6665;SDS011;3369;49.906;8.598;2023-04-23T05:18:08;9.63;;;7.10;;
6665;SDS011;3369;49.906;8.598;2023-04-23T05:20:34;6.93;;;6.23;;
6665;SDS011;3369;49.906;8.598;2023-04-23T05:23:00;6.90;;;6.30;;
6665;SDS011;3369;49.906;8.598;2023-04-23T05:25:27;8.30;;;6.77;;
6665;SDS011;3369;49.906;8.598;2023-04-23T05:27:54;7.03;;;6.33;;
6665;SDS011;3369;49.906;8.598;2023-04-23T05:30:20;7.23;;;6.53;;
6665;SDS011;3369;49.906;8.598;2023-04-23T05:32:46;6.80;;;5.90;;
6665;SDS011;3369;49.906;8.598;2023-04-23T05:35:11;6.60;;;5.90;;
6665;SDS011;3369;49.906;8.598;2023-04-23T05:37:37;8.03;;;6.00;;
6665;SDS011;3369;49.906;8.598;2023-04-23T05:40:03;7.07;;;6.20;;
6665;SDS011;3369;49.906;8.598;2023-04-23T05:42:31;7.40;;;6.00;;
6665;SDS011;3369;49.906;8.598;2023-04-23T05:44:59;8.23;;;6.20;;
6665;SDS011;3369;49.906;8.598;2023-04-23T05:47:24;6.40;;;5.80;;
6665;SDS011;3369;49.906;8.598;2023-04-23T05:49:50;6.43;;;5.83;;
6665;SDS011;3369;49.906;8.598;2023-04-23T05:52:16;6.17;;;5.57;;
6665;SDS011;3369;49.906;8.598;2023-04-23T05:54:42;5.93;;;5.43;;
6665;SDS011;3369;49.906;8.598;2023-04-23T05:57:08;6.13;;;5.37;;
6665;SDS011;3369;49.906;8.598;2023-04-23T05:59:34;5.20;;;4.80;;
6665;SDS011;3369;49.906;8.598;2023-04-23T06:02:00;4.43;;;4.13;;
6665;SDS011;3369;49.906;8.598;2023-04-23T06:04:26;4.23;;;3.93;;
6665;SDS011;3369;49.906;8.598;2023-04-23T06:06:52;5.07;;;4.00;;
6665;SDS011;3369;49.906;8.598;2023-04-23T06:09:17;4.10;;;3.70;;
6665;SDS011;3369;49.906;8.598;2023-04-23T06:11:43;4.00;;;3.60;;
6665;SDS011;3369;49.906;8.598;2023-04-23T06:14:09;7.37;;;3.57;;
6665;SDS011;3369;49.906;8.598;2023-04-23T06:16:34;3.83;;;3.53;;
6665;SDS011;3369;49.906;8.598;2023-04-23T06:19:02;4.67;;;4.00;;
6665;SDS011;3369;49.906;8.598;2023-04-23T06:21:28;3.77;;;3.47;;
6665;SDS011;3369;49.906;8.598;2023-04-23T06:23:53;3.50;;;3.20;;
6665;SDS011;3369;49.906;8.598;2023-04-23T06:26:19;3.50;;;3.20;;
6665;SDS011;3369;49.906;8.598;2023-04-23T06:28:45;3.10;;;2.80;;
6665;SDS011;3369;49.906;8.598;2023-04-23T06:31:11;3.60;;;3.30;;
6665;SDS011;3369;49.906;8.598;2023-04-23T06:33:37;3.17;;;2.90;;
6665;SDS011;3369;49.906;8.598;2023-04-23T06:36:03;2.97;;;2.77;;
6665;SDS011;3369;49.906;8.598;2023-04-23T06:38:29;3.20;;;3.00;;
6665;SDS011;3369;49.906;8.598;2023-04-23T06:40:55;3.10;;;2.90;;
6665;SDS011;3369;49.906;8.598;2023-04-23T06:43:21;3.97;;;3.20;;
6665;SDS011;3369;49.906;8.598;2023-04-23T06:45:47;2.90;;;2.70;;
6665;SDS011;3369;49.906;8.598;2023-04-23T06:48:13;2.53;;;2.33;;
6665;SDS011;3369;49.906;8.598;2023-04-23T07:12:40;2.80;;;2.60;;
6665;SDS011;3369;49.906;8.598;2023-04-23T07:15:06;3.23;;;3.03;;
6665;SDS011;3369;49.906;8.598;2023-04-23T07:17:32;3.33;;;3.03;;
6665;SDS011;3369;49.906;8.598;2023-04-23T07:19:58;2.83;;;2.50;;
6665;SDS011;3369;49.906;8.598;2023-04-23T07:22:24;3.00;;;2.80;;
6665;SDS011;3369;49.906;8.598;2023-04-23T07:24:50;3.90;;;3.50;;
6665;SDS011;3369;49.906;8.598;2023-04-23T07:27:16;2.97;;;2.73;;
6665;SDS011;3369;49.906;8.598;2023-04-23T07:29:42;4.10;;;3.70;;
6665;SDS011;3369;49.906;8.598;2023-04-23T07:32:08;3.10;;;2.90;;
6665;SDS011;3369;49.906;8.598;2023-04-23T07:34:33;3.60;;;3.30;;
6665;SDS011;3369;49.906;8.598;2023-04-23T07:37:01;3.80;;;3.50;;
6665;SDS011;3369;49.906;8.598;2023-04-23T07:39:27;3.43;;;3.20;;
6665;SDS011;3369;49.906;8.598;2023-04-23T07:41:52;6.13;;;4.07;;
6665;SDS011;3369;49.906;8.598;2023-04-23T07:44:18;3.13;;;2.83;;
6665;SDS011;3369;49.906;8.598;2023-04-23T07:46:44;3.23;;;2.93;;
6665;SDS011;3369;49.906;8.598;2023-04-23T07:49:09;3.33;;;3.13;;
6665;SDS011;3369;49.906;8.598;2023-04-23T07:51:35;3.30;;;3.00;;
6665;SDS011;3369;49.906;8.598;2023-04-23T07:54:01;3.97;;;3.57;;
6665;SDS011;3369;49.906;8.598;2023-04-23T07:56:26;3.00;;;2.80;;
6665;SDS011;3369;49.906;8.598;2023-04-23T07:58:52;3.87;;;3.37;;
6665;SDS011;3369;49.906;8.598;2023-04-23T08:01:18;3.33;;;2.90;;
6665;SDS011;3369;49.906;8.598;2023-04-23T08:03:43;3.77;;;3.47;;
6665;SDS011;3369;49.906;8.598;2023-04-23T08:06:10;2.80;;;2.60;;
6665;SDS011;3369;49.906;8.598;2023-04-23T08:08:38;3.37;;;3.07;;
6665;SDS011;3369;49.906;8.598;2023-04-23T08:11:05;4.33;;;3.17;;
6665;SDS011;3369;49.906;8.598;2023-04-23T08:13:31;5.00;;;3.00;;
6665;SDS011;3369;49.906;8.598;2023-04-23T08:15:57;3.33;;;2.90;;
6665;SDS011;3369;49.906;8.598;2023-04-23T08:18:23;5.80;;;3.50;;
6665;SDS011;3369;49.906;8.598;2023-04-23T08:20:48;3.30;;;3.00;;
6665;SDS011;3369;49.906;8.598;2023-04-23T08:23:14;3.20;;;2.90;;
6665;SDS011;3369;49.906;8.598;2023-04-23T08:25:41;3.63;;;3.33;;
6665;SDS011;3369;49.906;8.598;2023-04-23T08:28:06;3.50;;;3.00;;
6665;SDS011;3369;49.906;8.598;2023-04-23T08:30:32;5.50;;;3.70;;
6665;SDS011;3369;49.906;8.598;2023-04-23T08:32:58;3.93;;;2.87;;
6665;SDS011;3369;49.906;8.598;2023-04-23T08:35:23;3.10;;;2.87;;
6665;SDS011;3369;49.906;8.598;2023-04-23T08:37:49;3.23;;;2.93;;
6665;SDS011;3369;49.906;8.598;2023-04-23T08:40:15;3.30;;;2.53;;
6665;SDS011;3369;49.906;8.598;2023-04-23T08:45:07;5.33;;;3.20;;
6665;SDS011;3369;49.906;8.598;2023-04-23T08:47:33;2.83;;;2.60;;
6665;SDS011;3369;49.906;8.598;2023-04-23T08:50:02;2.63;;;2.50;;
6665;SDS011;3369;49.906;8.598;2023-04-23T08:52:31;3.23;;;2.83;;
6665;SDS011;3369;49.906;8.598;2023-04-23T08:55:00;3.07;;;2.77;;
6665;SDS011;3369;49.906;8.598;2023-04-23T08:57:26;5.50;;;3.33;;
6665;SDS011;3369;49.906;8.598;2023-04-23T08:59:52;3.10;;;2.90;;
6665;SDS011;3369;49.906;8.598;2023-04-23T09:02:19;3.23;;;3.03;;
6665;SDS011;3369;49.906;8.598;2023-04-23T09:04:44;3.20;;;2.90;;
6665;SDS011;3369;49.906;8.598;2023-04-23T09:07:11;3.07;;;2.83;;
6665;SDS011;3369;49.906;8.598;2023-04-23T09:09:37;2.60;;;2.40;;
6665;SDS011;3369;49.906;8.598;2023-04-23T09:12:05;2.73;;;2.50;;
6665;SDS011;3369;49.906;8.598;2023-04-23T09:14:32;2.50;;;2.30;;
6665;SDS011;3369;49.906;8.598;2023-04-23T09:16:58;3.30;;;3.00;;
6665;SDS011;3369;49.906;8.598;2023-04-23T09:19:25;2.80;;;2.60;;
6665;SDS011;3369;49.906;8.598;2023-04-23T09:21:51;7.33;;;2.73;;
6665;SDS011;3369;49.906;8.598;2023-04-23T09:24:17;4.63;;;2.80;;
6665;SDS011;3369;49.906;8.598;2023-04-23T09:26:47;2.77;;;2.57;;
6665;SDS011;3369;49.906;8.598;2023-04-23T09:29:20;2.10;;;1.90;;
6665;SDS011;3369;49.906;8.598;2023-04-23T09:31:51;2.67;;;2.47;;
6665;SDS011;3369;49.906;8.598;2023-04-23T09:34:19;3.87;;;2.50;;
6665;SDS011;3369;49.906;8.598;2023-04-23T09:36:47;6.17;;;2.47;;
6665;SDS011;3369;49.906;8.598;2023-04-23T09:39:15;3.17;;;2.53;;
6665;SDS011;3369;49.906;8.598;2023-04-23T09:41:42;2.83;;;2.10;;
6665;SDS011;3369;49.906;8.598;2023-04-23T09:44:10;2.03;;;1.93;;
6665;SDS011;3369;49.906;8.598;2023-04-23T09:46:41;3.67;;;2.40;;
6665;SDS011;3369;49.906;8.598;2023-04-23T09:49:08;2.87;;;2.23;;
6665;SDS011;3369;49.906;8.598;2023-04-23T09:51:39;2.23;;;2.13;;
6665;SDS011;3369;49.906;8.598;2023-04-23T09:54:19;2.67;;;2.47;;
6665;SDS011;3369;49.906;8.598;2023-04-23T09:56:50;3.47;;;2.60;;
6665;SDS011;3369;49.906;8.598;2023-04-23T09:59:27;2.53;;;2.17;;
6665;SDS011;3369;49.906;8.598;2023-04-23T10:01:54;2.70;;;2.50;;
6665;SDS011;3369;49.906;8.598;2023-04-23T10:04:21;3.73;;;2.37;;
6665;SDS011;3369;49.906;8.598;2023-04-23T10:06:52;3.17;;;2.00;;
6665;SDS011;3369;49.906;8.598;2023-04-23T10:09:20;3.63;;;2.30;;
6665;SDS011;3369;49.906;8.598;2023-04-23T10:11:52;2.40;;;2.20;;
6665;SDS011;3369;49.906;8.598;2023-04-23T10:14:22;4.43;;;2.20;;
6665;SDS011;3369;49.906;8.598;2023-04-23T10:16:51;3.37;;;1.57;;
6665;SDS011;3369;49.906;8.598;2023-04-23T10:19:18;1.70;;;1.60;;
6665;SDS011;3369;49.906;8.598;2023-04-23T10:21:52;2.47;;;2.10;;
6665;SDS011;3369;49.906;8.598;2023-04-23T10:24:24;3.97;;;2.10;;
6665;SDS011;3369;49.906;8.598;2023-04-23T10:27:01;2.67;;;1.73;;
6665;SDS011;3369;49.906;8.598;2023-04-23T10:29:34;3.10;;;2.23;;
6665;SDS011;3369;49.906;8.598;2023-04-23T10:32:03;3.43;;;2.13;;
6665;SDS011;3369;49.906;8.598;2023-04-23T10:34:30;2.57;;;2.00;;
6665;SDS011;3369;49.906;8.598;2023-04-23T10:36:58;1.90;;;1.70;;
6665;SDS011;3369;49.906;8.598;2023-04-23T10:39:29;2.53;;;2.00;;
6665;SDS011;3369;49.906;8.598;2023-04-23T10:41:57;1.80;;;1.70;;
6665;SDS011;3369;49.906;8.598;2023-04-23T10:44:30;3.27;;;1.70;;
6665;SDS011;3369;49.906;8.598;2023-04-23T10:47:03;2.37;;;2.10;;
6665;SDS011;3369;49.906;8.598;2023-04-23T10:49:30;3.10;;;2.17;;
6665;SDS011;3369;49.906;8.598;2023-04-23T10:52:18;2.30;;;2.10;;
6665;SDS011;3369;49.906;8.598;2023-04-23T10:54:43;2.63;;;2.43;;
6665;SDS011;3369;49.906;8.598;2023-04-23T10:57:20;2.47;;;1.70;;
6665;SDS011;3369;49.906;8.598;2023-04-23T10:59:53;3.17;;;2.10;;
6665;SDS011;3369;49.906;8.598;2023-04-23T11:02:21;1.90;;;1.70;;
6665;SDS011;3369;49.906;8.598;2023-04-23T11:04:55;4.37;;;2.10;;
6665;SDS011;3369;49.906;8.598;2023-04-23T11:07:28;3.83;;;2.17;;
6665;SDS011;3369;49.906;8.598;2023-04-23T11:09:57;2.30;;;1.90;;
6665;SDS011;3369;49.906;8.598;2023-04-23T11:14:54;3.47;;;2.10;;
6665;SDS011;3369;49.906;8.598;2023-04-23T11:17:23;2.30;;;1.90;;
6665;SDS011;3369;49.906;8.598;2023-04-23T11:20:09;1.93;;;1.77;;
6665;SDS011;3369;49.906;8.598;2023-04-23T11:27:38;2.63;;;2.10;;
6665;SDS011;3369;49.906;8.598;2023-04-23T11:30:10;2.47;;;2.20;;
6665;SDS011;3369;49.906;8.598;2023-04-23T11:32:37;1.97;;;1.87;;
6665;SDS011;3369;49.906;8.598;2023-04-23T11:35:05;2.20;;;2.00;;
6665;SDS011;3369;49.906;8.598;2023-04-23T11:37:37;2.40;;;2.13;;
6665;SDS011;3369;49.906;8.598;2023-04-23T11:40:07;2.43;;;1.90;;
6665;SDS011;3369;49.906;8.598;2023-04-23T11:42:41;2.40;;;2.07;;
6665;SDS011;3369;49.906;8.598;2023-04-23T11:45:28;2.23;;;2.03;;
6665;SDS011;3369;49.906;8.598;2023-04-23T11:47:54;2.97;;;2.07;;
6665;SDS011;3369;49.906;8.598;2023-04-23T11:50:22;2.30;;;1.60;;
6665;SDS011;3369;49.906;8.598;2023-04-23T11:52:53;3.73;;;2.03;;
6665;SDS011;3369;49.906;8.598;2023-04-23T11:55:19;3.23;;;2.07;;
6665;SDS011;3369;49.906;8.598;2023-04-23T11:57:47;3.07;;;1.90;;
6665;SDS011;3369;49.906;8.598;2023-04-23T12:02:59;2.27;;;2.07;;
6665;SDS011;3369;49.906;8.598;2023-04-23T12:05:27;2.20;;;1.67;;
6665;SDS011;3369;49.906;8.598;2023-04-23T12:08:05;2.13;;;1.70;;
6665;SDS011;3369;49.906;8.598;2023-04-23T12:10:40;1.70;;;1.60;;
6665;SDS011;3369;49.906;8.598;2023-04-23T12:13:16;2.00;;;1.80;;
6665;SDS011;3369;49.906;8.598;2023-04-23T12:15:44;2.53;;;2.10;;
6665;SDS011;3369;49.906;8.598;2023-04-23T12:18:14;3.27;;;2.20;;
6665;SDS011;3369;49.906;8.598;2023-04-23T12:20:40;3.00;;;1.33;;
6665;SDS011;3369;49.906;8.598;2023-04-23T12:23:06;2.03;;;1.80;;
6665;SDS011;3369;49.906;8.598;2023-04-23T12:25:33;1.33;;;1.23;;
6665;SDS011;3369;49.906;8.598;2023-04-23T12:28:00;1.60;;;1.50;;
6665;SDS011;3369;49.906;8.598;2023-04-23T12:30:28;1.60;;;1.50;;
6665;SDS011;3369;49.906;8.598;2023-04-23T12:33:01;1.73;;;1.63;;
6665;SDS011;3369;49.906;8.598;2023-04-23T12:35:37;2.03;;;1.73;;
6665;SDS011;3369;49.906;8.598;2023-04-23T12:38:04;1.93;;;1.67;;
6665;SDS011;3369;49.906;8.598;2023-04-23T12:40:30;2.10;;;1.30;;
6665;SDS011;3369;49.906;8.598;2023-04-23T12:42:55;2.20;;;1.40;;
6665;SDS011;3369;49.906;8.598;2023-04-23T12:45:21;2.53;;;1.40;;
6665;SDS011;3369;49.906;8.598;2023-04-23T12:47:47;1.57;;;1.47;;
6665;SDS011;3369;49.906;8.598;2023-04-23T12:50:13;2.70;;;1.30;;
6665;SDS011;3369;49.906;8.598;2023-04-23T12:52:38;1.73;;;1.47;;
6665;SDS011;3369;49.906;8.598;2023-04-23T12:55:04;2.77;;;1.33;;
6665;SDS011;3369;49.906;8.598;2023-04-23T12:57:30;2.07;;;1.27;;
6665;SDS011;3369;49.906;8.598;2023-04-23T12:59:56;2.87;;;1.67;;
6665;SDS011;3369;49.906;8.598;2023-04-23T13:02:22;1.40;;;1.30;;
6665;SDS011;3369;49.906;8.598;2023-04-23T13:04:49;2.17;;;1.40;;
6665;SDS011;3369;49.906;8.598;2023-04-23T13:07:15;1.90;;;1.20;;
6665;SDS011;3369;49.906;8.598;2023-04-23T13:29:10;2.03;;;1.23;;
6665;SDS011;3369;49.906;8.598;2023-04-23T13:31:35;2.23;;;1.50;;
6665;SDS011;3369;49.906;8.598;2023-04-23T13:34:01;1.93;;;1.37;;
6665;SDS011;3369;49.906;8.598;2023-04-23T13:36:27;0.93;;;0.93;;
6665;SDS011;3369;49.906;8.598;2023-04-23T13:38:53;1.90;;;1.10;;
6665;SDS011;3369;49.906;8.598;2023-04-23T13:41:18;1.20;;;1.10;;
6665;SDS011;3369;49.906;8.598;2023-04-23T13:43:44;2.13;;;1.53;;
6665;SDS011;3369;49.906;8.598;2023-04-23T13:46:10;1.33;;;1.20;;
6665;SDS011;3369;49.906;8.598;2023-04-23T13:48:35;1.53;;;0.97;;
6665;SDS011;3369;49.906;8.598;2023-04-23T13:51:01;2.23;;;1.30;;
6665;SDS011;3369;49.906;8.598;2023-04-23T13:53:27;1.00;;;1.00;;
6665;SDS011;3369;49.906;8.598;2023-04-23T13:55:53;4.03;;;1.60;;
6665;SDS011;3369;49.906;8.598;2023-04-23T13:58:20;1.10;;;1.00;;
6665;SDS011;3369;49.906;8.598;2023-04-23T14:00:46;1.60;;;1.30;;
6665;SDS011;3369;49.906;8.598;2023-04-23T14:03:11;1.63;;;1.10;;
6665;SDS011;3369;49.906;8.598;2023-04-23T14:05:37;1.60;;;1.20;;
6665;SDS011;3369;49.906;8.598;2023-04-23T14:08:03;1.20;;;1.10;;
6665;SDS011;3369;49.906;8.598;2023-04-23T14:10:29;1.10;;;1.00;;
6665;SDS011;3369;49.906;8.598;2023-04-23T14:12:55;0.90;;;0.90;;
6665;SDS011;3369;49.906;8.598;2023-04-23T14:15:20;0.90;;;0.90;;
6665;SDS011;3369;49.906;8.598;2023-04-23T14:17:46;2.07;;;1.27;;
6665;SDS011;3369;49.906;8.598;2023-04-23T14:20:12;2.33;;;0.93;;
6665;SDS011;3369;49.906;8.598;2023-04-23T14:22:45;1.63;;;1.10;;
6665;SDS011;3369;49.906;8.598;2023-04-23T14:25:14;1.03;;;1.03;;
6665;SDS011;3369;49.906;8.598;2023-04-23T14:28:01;1.10;;;1.00;;
6665;SDS011;3369;49.906;8.598;2023-04-23T14:30:33;1.50;;;1.00;;
6665;SDS011;3369;49.906;8.598;2023-04-23T14:32:59;2.53;;;0.90;;
6665;SDS011;3369;49.906;8.598;2023-04-23T14:35:25;1.03;;;1.00;;
6665;SDS011;3369;49.906;8.598;2023-04-23T14:37:50;1.37;;;1.10;;
6665;SDS011;3369;49.906;8.598;2023-04-23T14:40:16;0.93;;;0.93;;
6665;SDS011;3369;49.906;8.598;2023-04-23T14:42:47;1.30;;;1.00;;
6665;SDS011;3369;49.906;8.598;2023-04-23T14:45:16;2.57;;;1.27;;
6665;SDS011;3369;49.906;8.598;2023-04-23T14:47:44;1.83;;;1.00;;
6665;SDS011;3369;49.906;8.598;2023-04-23T14:50:12;1.10;;;1.00;;
6665;SDS011;3369;49.906;8.598;2023-04-23T14:52:42;1.00;;;1.00;;
6665;SDS011;3369;49.906;8.598;2023-04-23T14:55:12;1.90;;;0.90;;
6665;SDS011;3369;49.906;8.598;2023-04-23T14:57:37;1.63;;;1.07;;
6665;SDS011;3369;49.906;8.598;2023-04-23T15:00:04;0.90;;;0.90;;
6665;SDS011;3369;49.906;8.598;2023-04-23T15:02:30;1.02;;;0.80;;
6665;SDS011;3369;49.906;8.598;2023-04-23T15:04:56;0.93;;;0.93;;
6665;SDS011;3369;49.906;8.598;2023-04-23T15:07:22;4.20;;;1.43;;
6665;SDS011;3369;49.906;8.598;2023-04-23T15:09:47;1.03;;;0.90;;
6665;SDS011;3369;49.906;8.598;2023-04-23T15:12:47;1.63;;;1.20;;
6665;SDS011;3369;49.906;8.598;2023-04-23T15:15:06;1.20;;;1.10;;
6665;SDS011;3369;49.906;8.598;2023-04-23T15:17:46;1.30;;;1.00;;
6665;SDS011;3369;49.906;8.598;2023-04-23T15:20:13;1.27;;;1.17;;
6665;SDS011;3369;49.906;8.598;2023-04-23T15:22:39;1.30;;;1.20;;
6665;SDS011;3369;49.906;8.598;2023-04-23T15:25:05;1.30;;;0.93;;
6665;SDS011;3369;49.906;8.598;2023-04-23T15:27:31;0.70;;;0.70;;
6665;SDS011;3369;49.906;8.598;2023-04-23T15:29:57;1.43;;;1.00;;
6665;SDS011;3369;49.906;8.598;2023-04-23T15:32:23;2.33;;;1.30;;
6665;SDS011;3369;49.906;8.598;2023-04-23T15:34:48;1.20;;;1.07;;
6665;SDS011;3369;49.906;8.598;2023-04-23T15:37:14;1.23;;;1.07;;
6665;SDS011;3369;49.906;8.598;2023-04-23T15:39:40;1.40;;;1.30;;
6665;SDS011;3369;49.906;8.598;2023-04-23T15:42:06;1.63;;;1.10;;
6665;SDS011;3369;49.906;8.598;2023-04-23T15:44:31;1.13;;;0.83;;
6665;SDS011;3369;49.906;8.598;2023-04-23T15:46:57;1.77;;;1.10;;
6665;SDS011;3369;49.906;8.598;2023-04-23T15:49:25;0.90;;;0.87;;
6665;SDS011;3369;49.906;8.598;2023-04-23T15:51:51;0.70;;;0.70;;
6665;SDS011;3369;49.906;8.598;2023-04-23T15:54:18;0.83;;;0.73;;
6665;SDS011;3369;49.906;8.598;2023-04-23T15:56:43;1.30;;;1.20;;
6665;SDS011;3369;49.906;8.598;2023-04-23T15:59:10;1.03;;;0.90;;
6665;SDS011;3369;49.906;8.598;2023-04-23T16:01:35;0.83;;;0.83;;
6665;SDS011;3369;49.906;8.598;2023-04-23T16:04:01;2.07;;;0.97;;
6665;SDS011;3369;49.906;8.598;2023-04-23T16:06:27;0.80;;;0.80;;
6665;SDS011;3369;49.906;8.598;2023-04-23T16:08:52;0.80;;;0.80;;
6665;SDS011;3369;49.906;8.598;2023-04-23T16:11:18;1.03;;;0.97;;
6665;SDS011;3369;49.906;8.598;2023-04-23T16:13:44;2.47;;;2.27;;
6665;SDS011;3369;49.906;8.598;2023-04-23T16:16:10;1.50;;;1.10;;
6665;SDS011;3369;49.906;8.598;2023-04-23T16:18:36;1.63;;;1.53;;
6665;SDS011;3369;49.906;8.598;2023-04-23T16:21:01;2.40;;;1.20;;
6665;SDS011;3369;49.906;8.598;2023-04-23T16:23:27;2.27;;;1.20;;
6665;SDS011;3369;49.906;8.598;2023-04-23T16:25:52;1.50;;;1.20;;
6665;SDS011;3369;49.906;8.598;2023-04-23T16:28:19;2.00;;;1.03;;